createdAt,value
2022-10-13T00:02:23.009Z,1064.70
2022-10-13T00:07:23.174Z,1059.90
2022-10-13T00:12:23.041Z,1059.90
2022-10-13T00:17:23.068Z,1064.90
2022-10-13T00:22:23.034Z,1064.90
2022-10-13T00:27:23.050Z,1084.80
2022-10-13T00:32:23.016Z,1084.80
2022-10-13T00:37:23.074Z,1109.10
2022-10-13T00:47:23.072Z,1164.40
2022-10-13T00:52:23.045Z,1164.40
2022-10-13T00:57:23.072Z,1033.80
2022-10-13T01:02:23.454Z,1033.80
2022-10-13T01:07:23.386Z,1036.10
2022-10-13T01:12:23.052Z,1036.10
2022-10-13T01:17:23.332Z,1044.00
2022-10-13T01:22:23.097Z,1044.00
2022-10-13T01:27:23.265Z,1034.30
2022-10-13T01:32:23.050Z,1034.30
2022-10-13T01:37:23.208Z,1030.10
2022-10-13T01:42:23.062Z,1030.10
2022-10-13T01:47:23.195Z,1064.30
2022-10-13T01:52:23.084Z,1064.30
2022-10-13T01:57:23.105Z,1060.10
2022-10-13T02:02:23.296Z,1060.10
2022-10-13T02:07:23.089Z,1065.40
2022-10-13T02:12:23.153Z,1065.40
2022-10-13T02:17:23.401Z,1084.50
2022-10-13T02:22:23.215Z,1084.50
2022-10-13T02:27:23.390Z,1083.30
2022-10-13T02:32:23.074Z,1083.30
2022-10-13T02:37:23.136Z,1071.00
2022-10-13T02:42:23.515Z,1071.00
2022-10-13T02:47:23.333Z,1066.50
2022-10-13T02:52:23.136Z,1066.50
2022-10-13T02:57:23.311Z,1060.90
2022-10-13T03:02:23.447Z,1060.90
2022-10-13T03:07:23.119Z,1036.10
2022-10-13T03:08:52.714Z,1036.10
2022-10-13T03:12:23.432Z,1036.10
2022-10-13T03:17:23.153Z,1084.20
2022-10-13T03:22:23.459Z,1084.20
2022-10-13T03:27:23.197Z,1114.00
2022-10-13T03:32:23.332Z,1114.00
2022-10-13T03:37:23.214Z,1091.50
2022-10-13T03:42:23.135Z,1091.50
2022-10-13T03:52:23.545Z,1112.40
2022-10-13T03:57:23.131Z,1090.40
2022-10-13T04:02:23.263Z,1090.40
2022-10-13T04:07:23.407Z,1048.50
2022-10-13T04:12:23.702Z,1048.50
2022-10-13T04:17:23.374Z,1103.10
2022-10-13T04:22:23.438Z,1103.10
2022-10-13T04:27:23.149Z,1098.40
2022-10-13T04:32:23.293Z,1098.40
2022-10-13T04:37:23.384Z,1084.30
2022-10-13T04:42:23.394Z,1084.30
2022-10-13T04:47:23.269Z,1149.60
2022-10-13T04:52:23.249Z,1149.60
2022-10-13T04:57:23.236Z,1285.10
2022-10-13T05:02:23.391Z,1285.10
2022-10-13T05:12:23.569Z,1136.90
2022-10-13T05:17:23.589Z,1163.30
2022-10-13T05:22:23.448Z,1163.30
2022-10-13T05:32:23.402Z,1194.10
2022-10-13T05:37:23.860Z,1159.50
2022-10-13T05:42:23.419Z,1159.50
2022-10-13T05:47:23.185Z,1120.00
2022-10-13T05:52:23.200Z,1120.00
2022-10-13T05:57:23.200Z,1086.00
2022-10-13T06:02:23.381Z,1086.00
2022-10-13T06:07:23.414Z,1056.60
2022-10-13T06:12:23.465Z,1056.60
2022-10-13T06:17:23.330Z,1056.20
2022-10-13T06:22:23.286Z,1056.20
2022-10-13T06:27:23.298Z,1083.80
2022-10-13T06:32:23.533Z,1083.80
2022-10-13T06:37:27.170Z,1077.80
2022-10-13T06:42:23.648Z,1077.80
2022-10-13T06:47:23.190Z,1086.10
2022-10-13T06:52:23.228Z,1086.10
2022-10-13T06:57:23.190Z,1116.40
2022-10-13T07:02:23.403Z,1116.40
2022-10-13T07:07:23.242Z,1196.90
2022-10-13T07:12:23.355Z,1196.90
2022-10-13T07:17:23.625Z,1282.60
2022-10-13T07:22:23.191Z,1282.60
2022-10-13T07:27:23.862Z,1292.30
2022-10-13T07:32:23.259Z,1292.30
2022-10-13T07:37:23.482Z,1320.90
2022-10-13T07:42:23.230Z,1320.90
2022-10-13T07:47:23.373Z,1303.40
2022-10-13T07:52:23.388Z,1303.40
2022-10-13T07:57:23.363Z,1306.70
2022-10-13T08:02:23.262Z,1306.70
2022-10-13T08:07:23.592Z,1288.20
2022-10-13T08:12:23.228Z,1288.20
2022-10-13T08:17:23.604Z,1440.60
2022-10-13T08:22:27.349Z,1440.60
2022-10-13T08:27:23.505Z,1534.10
2022-10-13T08:32:23.316Z,1534.10
2022-10-13T08:37:23.256Z,1514.00
2022-10-13T08:42:23.259Z,1514.00
2022-10-13T08:47:23.547Z,1546.00
2022-10-13T08:52:23.342Z,1546.00
2022-10-13T08:57:23.485Z,1636.60
2022-10-13T09:02:23.302Z,1636.60
2022-10-13T09:07:23.510Z,1646.90
2022-10-13T09:12:23.285Z,1646.90
2022-10-13T09:17:23.274Z,1656.40
2022-10-13T09:22:23.284Z,1656.40
2022-10-13T09:27:23.359Z,1678.10
2022-10-13T09:37:23.424Z,1660.20
2022-10-13T09:42:23.466Z,1660.20
2022-10-13T09:47:23.627Z,1639.00
2022-10-13T09:52:23.537Z,1639.00
2022-10-13T09:57:23.602Z,1619.30
2022-10-13T10:02:25.075Z,1619.30
2022-10-13T10:07:23.566Z,1595.00
2022-10-13T10:12:27.551Z,1595.00
2022-10-13T10:17:23.516Z,1632.30
2022-10-13T10:22:23.384Z,1632.30
2022-10-13T10:27:23.337Z,1615.90
2022-10-13T10:32:23.507Z,1615.90
2022-10-13T10:37:25.362Z,1550.80
2022-10-13T10:42:23.349Z,1550.80
2022-10-13T10:47:23.775Z,1548.30
2022-10-13T10:52:23.304Z,1548.30
2022-10-13T10:57:23.341Z,1638.10
2022-10-13T11:02:23.558Z,1638.10
2022-10-13T11:07:23.367Z,1627.20
2022-10-13T11:12:23.575Z,1627.20
2022-10-13T11:17:23.671Z,1723.60
2022-10-13T11:22:23.815Z,1723.60
2022-10-13T11:27:23.618Z,1818.60
2022-10-13T11:32:23.444Z,1818.60
2022-10-13T11:37:23.658Z,1524.60
2022-10-13T11:42:23.614Z,1524.60
2022-10-13T11:47:23.672Z,1516.80
2022-10-13T11:52:23.498Z,1516.80
2022-10-13T11:57:23.560Z,1506.10
2022-10-13T12:02:23.599Z,1506.10
2022-10-13T12:07:23.567Z,1523.80
2022-10-13T12:12:23.772Z,1523.80
2022-10-13T12:17:24.074Z,1552.10
2022-10-13T12:22:23.630Z,1552.10
2022-10-13T12:27:23.418Z,1505.60
2022-10-13T12:32:23.603Z,1505.60
2022-10-13T12:37:23.412Z,1435.70
2022-10-13T12:42:23.550Z,1435.70
2022-10-13T12:47:23.348Z,1243.90
2022-10-13T12:52:23.382Z,1243.90
2022-10-13T12:57:23.655Z,1388.60
2022-10-13T13:02:23.523Z,1388.60
2022-10-13T13:07:23.650Z,1483.60
2022-10-13T13:12:23.724Z,1483.60
2022-10-13T13:17:38.888Z,1504.10
2022-10-13T13:22:23.656Z,1504.10
2022-10-13T13:27:23.643Z,1529.10
2022-10-13T13:32:23.731Z,1529.10
2022-10-13T13:37:23.509Z,1692.70
2022-10-13T13:42:23.676Z,1692.70
2022-10-13T13:47:23.677Z,1418.30
2022-10-13T13:52:23.516Z,1418.30
2022-10-13T14:02:23.639Z,1446.90
2022-10-13T14:07:23.679Z,1618.30
2022-10-13T14:12:23.686Z,1618.30
2022-10-13T14:17:23.452Z,1620.60
2022-10-13T14:27:23.975Z,1620.60
2022-10-13T14:32:23.768Z,1646.40
2022-10-13T14:37:25.779Z,1646.40
2022-10-13T14:42:23.433Z,1641.10
2022-10-13T14:47:24.071Z,1641.10
2022-10-13T14:52:23.409Z,1455.70
2022-10-13T14:57:23.905Z,1455.70
2022-10-13T15:02:23.467Z,1479.40
2022-10-13T15:07:23.907Z,1479.40
2022-10-13T15:12:23.818Z,1487.10
2022-10-13T15:17:23.682Z,1487.10
2022-10-13T15:22:23.787Z,1560.00
2022-10-13T15:27:23.535Z,1560.00
2022-10-13T15:32:23.812Z,1472.70
2022-10-13T15:37:23.498Z,1472.70
2022-10-13T15:42:23.671Z,1425.70
2022-10-13T15:47:23.486Z,1425.70
2022-10-13T15:52:23.928Z,1399.10
2022-10-13T15:57:23.755Z,1399.10
2022-10-13T16:02:23.700Z,1382.70
2022-10-13T16:07:23.729Z,1382.70
2022-10-13T16:12:23.465Z,1374.20
2022-10-13T16:17:23.676Z,1374.20
2022-10-13T16:22:23.650Z,1378.70
2022-10-13T16:27:23.493Z,1378.70
2022-10-13T16:32:23.578Z,1343.00
2022-10-13T16:37:24.144Z,1343.00
2022-10-13T16:42:23.521Z,1325.10
2022-10-13T16:47:23.948Z,1325.10
2022-10-13T16:52:23.514Z,1320.30
2022-10-13T16:57:23.818Z,1320.30
2022-10-13T17:02:23.523Z,1323.10
2022-10-13T17:07:23.940Z,1323.10
2022-10-13T17:12:23.805Z,1345.80
2022-10-13T17:17:23.833Z,1345.80
2022-10-13T17:22:23.527Z,1037.60
2022-10-13T17:27:24.091Z,1037.60
2022-10-13T17:32:23.532Z,1100.50
2022-10-13T17:37:23.910Z,1100.50
2022-10-13T17:42:23.717Z,1125.10
2022-10-13T17:47:23.774Z,1125.10
2022-10-13T17:52:23.659Z,1178.60
2022-10-13T17:57:23.954Z,1178.60
2022-10-13T18:02:23.615Z,1142.40
2022-10-13T18:07:23.913Z,1142.40
2022-10-13T18:12:23.555Z,1143.80
2022-10-13T18:17:23.959Z,1143.80
2022-10-13T18:22:24.852Z,1129.60
2022-10-13T18:27:24.031Z,1129.60
2022-10-13T18:32:23.743Z,1122.60
2022-10-13T18:37:23.591Z,1122.60
2022-10-13T18:42:23.588Z,1166.90
2022-10-13T18:47:23.943Z,1166.90
2022-10-13T18:52:23.819Z,1176.20
2022-10-13T18:57:24.077Z,1176.20
2022-10-13T19:02:23.944Z,1192.60
2022-10-13T19:07:23.931Z,1192.60
2022-10-13T19:12:23.833Z,1148.90
2022-10-13T19:17:23.858Z,1148.90
2022-10-13T19:22:23.923Z,1235.60
2022-10-13T19:27:23.982Z,1235.60
2022-10-13T19:32:23.548Z,1231.10
2022-10-13T19:37:23.978Z,1231.10
2022-10-13T19:42:23.803Z,1209.50
2022-10-13T19:47:23.969Z,1209.50
2022-10-13T19:52:24.496Z,1152.40
2022-10-13T19:57:23.959Z,1152.40
2022-10-13T20:02:23.909Z,1145.30
2022-10-13T20:07:23.772Z,1145.30
2022-10-13T20:12:23.849Z,1258.10
2022-10-13T20:22:23.801Z,1241.00
2022-10-13T20:27:24.092Z,1241.00
2022-10-13T20:32:23.582Z,1234.90
2022-10-13T20:37:24.221Z,1234.90
2022-10-13T20:42:23.631Z,1307.70
2022-10-13T20:47:23.993Z,1307.70
2022-10-13T20:52:23.676Z,1280.60
2022-10-13T20:57:23.994Z,1280.60
2022-10-13T21:02:23.589Z,1163.40
2022-10-13T21:07:24.004Z,1163.40
2022-10-13T21:12:23.631Z,1193.20
2022-10-13T21:17:23.825Z,1193.20
2022-10-13T21:22:23.630Z,1215.40
2022-10-13T21:27:23.873Z,1215.40
2022-10-13T21:32:23.598Z,1230.70
2022-10-13T21:37:23.991Z,1230.70
2022-10-13T21:42:23.630Z,1273.50
2022-10-13T21:47:23.894Z,1273.50
2022-10-13T21:52:23.641Z,1352.50
2022-10-13T21:57:23.888Z,1352.50
2022-10-13T22:02:23.653Z,1286.80
2022-10-13T22:07:23.989Z,1286.80
2022-10-13T22:12:23.683Z,1229.40
2022-10-13T22:22:27.463Z,1198.60
2022-10-13T22:27:23.989Z,1198.60
2022-10-13T22:32:23.646Z,1148.50
2022-10-13T22:37:24.033Z,1148.50
2022-10-13T22:42:23.972Z,1143.60
2022-10-13T22:47:24.028Z,1143.60
2022-10-13T22:52:23.900Z,1136.10
2022-10-13T22:57:23.971Z,1136.10
2022-10-13T23:02:23.862Z,1158.60
2022-10-13T23:07:23.955Z,1158.60
2022-10-13T23:12:23.859Z,1135.40
2022-10-13T23:17:24.409Z,1135.40
2022-10-13T23:22:23.777Z,1101.70
2022-10-13T23:27:23.893Z,1101.70
2022-10-13T23:32:23.779Z,1100.70
2022-10-13T23:37:24.193Z,1100.70
2022-10-13T23:42:23.675Z,1109.90
2022-10-13T23:47:24.100Z,1109.90
2022-10-13T23:52:23.817Z,1094.30
2022-10-13T23:57:24.068Z,1094.30
